Allendale, Illinois
Current Conditions -  °F | °C
As of 11:15 AM on Wednesday 26 Nov 2014 (Local Time) from KAJG Reporting Station
Scattered Clouds Scattered Clouds  
Wind Chill: 31°   Ceiling: Unl
Heat Index: 36°   Visibility: 10mi
Dew Point: 28°   Wind: 6mph
Humidity: 75%   Direction: 110°ESE
Pressure: 30.11"   Gusts: NA
Location:  38.53°N, 87.71°W
Report Text: KAJG 261715Z AUTO 11005KT 10SM SCT011 02/M02 A3011 RMK AO2
Loading
Personal Weather Stations






























Interactive Weather Map New forecast layout! Learn more

10-Day Weather Forecast

Advertisements
Track Severe Weather on mobile